sensor_id;sensor_type;location;lat;lon;timestamp;P1;durP1;ratioP1;P2;durP2;ratioP2
74231;SDS011;62590;52.430;4.902;2022-10-31T00:00:49;4.45;;;2.40;;
74231;SDS011;62590;52.430;4.902;2022-10-31T00:03:15;5.90;;;1.98;;
74231;SDS011;62590;52.430;4.902;2022-10-31T00:05:42;6.65;;;2.15;;
74231;SDS011;62590;52.430;4.902;2022-10-31T00:08:08;10.73;;;2.15;;
74231;SDS011;62590;52.430;4.902;2022-10-31T00:10:36;3.45;;;1.95;;
74231;SDS011;62590;52.430;4.902;2022-10-31T00:13:02;6.18;;;2.20;;
74231;SDS011;62590;52.430;4.902;2022-10-31T00:15:28;6.47;;;2.47;;
74231;SDS011;62590;52.430;4.902;2022-10-31T00:17:53;10.82;;;2.35;;
74231;SDS011;62590;52.430;4.902;2022-10-31T00:20:18;7.85;;;2.90;;
74231;SDS011;62590;52.430;4.902;2022-10-31T00:22:44;6.03;;;2.90;;
74231;SDS011;62590;52.430;4.902;2022-10-31T00:25:09;4.55;;;2.10;;
74231;SDS011;62590;52.430;4.902;2022-10-31T00:27:34;6.57;;;2.40;;
74231;SDS011;62590;52.430;4.902;2022-10-31T00:30:00;4.63;;;2.00;;
74231;SDS011;62590;52.430;4.902;2022-10-31T00:32:28;7.65;;;2.80;;
74231;SDS011;62590;52.430;4.902;2022-10-31T00:34:54;6.05;;;1.90;;
74231;SDS011;62590;52.430;4.902;2022-10-31T00:37:19;8.82;;;2.20;;
74231;SDS011;62590;52.430;4.902;2022-10-31T00:39:44;5.78;;;2.08;;
74231;SDS011;62590;52.430;4.902;2022-10-31T00:42:10;7.10;;;2.40;;
74231;SDS011;62590;52.430;4.902;2022-10-31T00:44:35;9.13;;;3.15;;
74231;SDS011;62590;52.430;4.902;2022-10-31T00:47:01;6.63;;;2.35;;
74231;SDS011;62590;52.430;4.902;2022-10-31T00:49:26;11.88;;;2.83;;
74231;SDS011;62590;52.430;4.902;2022-10-31T00:51:51;10.85;;;2.83;;
74231;SDS011;62590;52.430;4.902;2022-10-31T00:54:17;6.88;;;2.45;;
74231;SDS011;62590;52.430;4.902;2022-10-31T00:56:42;5.28;;;2.35;;
74231;SDS011;62590;52.430;4.902;2022-10-31T00:59:07;10.27;;;2.83;;
74231;SDS011;62590;52.430;4.902;2022-10-31T01:01:33;18.38;;;3.28;;
74231;SDS011;62590;52.430;4.902;2022-10-31T01:03:58;9.85;;;3.17;;
74231;SDS011;62590;52.430;4.902;2022-10-31T01:06:23;6.32;;;2.65;;
74231;SDS011;62590;52.430;4.902;2022-10-31T01:08:49;4.85;;;2.55;;
74231;SDS011;62590;52.430;4.902;2022-10-31T01:11:18;7.10;;;3.17;;
74231;SDS011;62590;52.430;4.902;2022-10-31T01:13:49;9.00;;;3.33;;
74231;SDS011;62590;52.430;4.902;2022-10-31T01:16:17;6.75;;;2.58;;
74231;SDS011;62590;52.430;4.902;2022-10-31T01:18:44;6.50;;;3.05;;
74231;SDS011;62590;52.430;4.902;2022-10-31T01:21:11;7.13;;;2.70;;
74231;SDS011;62590;52.430;4.902;2022-10-31T01:23:38;4.80;;;2.40;;
74231;SDS011;62590;52.430;4.902;2022-10-31T01:26:09;11.32;;;2.83;;
74231;SDS011;62590;52.430;4.902;2022-10-31T01:28:38;4.35;;;2.55;;
74231;SDS011;62590;52.430;4.902;2022-10-31T01:31:08;9.38;;;2.55;;
74231;SDS011;62590;52.430;4.902;2022-10-31T01:33:34;7.60;;;2.60;;
74231;SDS011;62590;52.430;4.902;2022-10-31T01:36:00;7.50;;;3.38;;
74231;SDS011;62590;52.430;4.902;2022-10-31T01:38:26;10.48;;;2.78;;
74231;SDS011;62590;52.430;4.902;2022-10-31T01:40:52;8.25;;;2.90;;
74231;SDS011;62590;52.430;4.902;2022-10-31T01:43:18;9.18;;;3.35;;
74231;SDS011;62590;52.430;4.902;2022-10-31T01:45:45;12.70;;;3.55;;
74231;SDS011;62590;52.430;4.902;2022-10-31T01:48:16;9.40;;;3.53;;
74231;SDS011;62590;52.430;4.902;2022-10-31T01:50:44;6.57;;;2.95;;
74231;SDS011;62590;52.430;4.902;2022-10-31T01:53:13;5.50;;;2.80;;
74231;SDS011;62590;52.430;4.902;2022-10-31T01:55:41;6.75;;;2.78;;
74231;SDS011;62590;52.430;4.902;2022-10-31T01:58:13;6.65;;;2.55;;
74231;SDS011;62590;52.430;4.902;2022-10-31T02:00:44;10.73;;;3.03;;
74231;SDS011;62590;52.430;4.902;2022-10-31T02:03:14;11.40;;;2.90;;
74231;SDS011;62590;52.430;4.902;2022-10-31T02:05:41;9.43;;;2.97;;
74231;SDS011;62590;52.430;4.902;2022-10-31T02:08:15;8.55;;;2.97;;
74231;SDS011;62590;52.430;4.902;2022-10-31T02:10:45;5.78;;;2.90;;
74231;SDS011;62590;52.430;4.902;2022-10-31T02:13:11;8.57;;;2.88;;
74231;SDS011;62590;52.430;4.902;2022-10-31T02:15:37;6.53;;;3.53;;
74231;SDS011;62590;52.430;4.902;2022-10-31T02:18:04;7.63;;;3.15;;
74231;SDS011;62590;52.430;4.902;2022-10-31T02:20:42;8.45;;;3.58;;
74231;SDS011;62590;52.430;4.902;2022-10-31T02:34:17;9.52;;;3.92;;
74231;SDS011;62590;52.430;4.902;2022-10-31T02:36:56;7.30;;;3.30;;
74231;SDS011;62590;52.430;4.902;2022-10-31T02:39:30;6.05;;;3.20;;
74231;SDS011;62590;52.430;4.902;2022-10-31T02:47:58;7.88;;;4.03;;
74231;SDS011;62590;52.430;4.902;2022-10-31T02:50:29;8.02;;;3.75;;
74231;SDS011;62590;52.430;4.902;2022-10-31T02:52:58;5.43;;;3.35;;
74231;SDS011;62590;52.430;4.902;2022-10-31T02:57:49;9.07;;;3.65;;
74231;SDS011;62590;52.430;4.902;2022-10-31T03:00:17;7.68;;;3.47;;
74231;SDS011;62590;52.430;4.902;2022-10-31T03:13:15;9.40;;;4.10;;
74231;SDS011;62590;52.430;4.902;2022-10-31T03:15:44;12.65;;;4.25;;
74231;SDS011;62590;52.430;4.902;2022-10-31T03:18:28;9.32;;;3.97;;
74231;SDS011;62590;52.430;4.902;2022-10-31T03:21:16;11.18;;;3.85;;
74231;SDS011;62590;52.430;4.902;2022-10-31T03:23:47;7.35;;;3.92;;
74231;SDS011;62590;52.430;4.902;2022-10-31T03:26:16;8.82;;;4.32;;
74231;SDS011;62590;52.430;4.902;2022-10-31T03:28:49;11.95;;;3.95;;
74231;SDS011;62590;52.430;4.902;2022-10-31T03:31:20;9.20;;;4.50;;
74231;SDS011;62590;52.430;4.902;2022-10-31T03:33:49;8.43;;;4.55;;
74231;SDS011;62590;52.430;4.902;2022-10-31T03:36:17;10.90;;;4.22;;
74231;SDS011;62590;52.430;4.902;2022-10-31T03:38:44;10.15;;;4.65;;
74231;SDS011;62590;52.430;4.902;2022-10-31T03:41:13;10.48;;;4.25;;
74231;SDS011;62590;52.430;4.902;2022-10-31T03:43:45;9.30;;;4.60;;
74231;SDS011;62590;52.430;4.902;2022-10-31T03:46:20;12.02;;;4.55;;
74231;SDS011;62590;52.430;4.902;2022-10-31T03:48:46;12.00;;;3.92;;
74231;SDS011;62590;52.430;4.902;2022-10-31T03:54:04;12.25;;;4.47;;
74231;SDS011;62590;52.430;4.902;2022-10-31T03:59:15;8.73;;;4.60;;
74231;SDS011;62590;52.430;4.902;2022-10-31T04:01:47;6.20;;;3.80;;
74231;SDS011;62590;52.430;4.902;2022-10-31T04:04:18;7.15;;;4.45;;
74231;SDS011;62590;52.430;4.902;2022-10-31T04:06:44;6.88;;;3.55;;
74231;SDS011;62590;52.430;4.902;2022-10-31T04:09:11;10.95;;;4.63;;
74231;SDS011;62590;52.430;4.902;2022-10-31T04:11:40;6.75;;;3.97;;
74231;SDS011;62590;52.430;4.902;2022-10-31T04:14:10;7.68;;;3.97;;
74231;SDS011;62590;52.430;4.902;2022-10-31T04:16:37;12.07;;;4.65;;
74231;SDS011;62590;52.430;4.902;2022-10-31T04:19:06;9.52;;;4.10;;
74231;SDS011;62590;52.430;4.902;2022-10-31T04:21:31;7.40;;;3.92;;
74231;SDS011;62590;52.430;4.902;2022-10-31T04:23:57;8.98;;;4.28;;
74231;SDS011;62590;52.430;4.902;2022-10-31T04:26:22;9.05;;;3.88;;
74231;SDS011;62590;52.430;4.902;2022-10-31T04:28:48;9.10;;;4.05;;
74231;SDS011;62590;52.430;4.902;2022-10-31T04:31:14;10.07;;;3.78;;
74231;SDS011;62590;52.430;4.902;2022-10-31T04:33:39;9.07;;;3.88;;
74231;SDS011;62590;52.430;4.902;2022-10-31T04:36:04;12.40;;;4.88;;
74231;SDS011;62590;52.430;4.902;2022-10-31T04:38:30;10.90;;;4.90;;
74231;SDS011;62590;52.430;4.902;2022-10-31T04:40:55;13.63;;;4.60;;
74231;SDS011;62590;52.430;4.902;2022-10-31T04:43:21;10.35;;;3.97;;
74231;SDS011;62590;52.430;4.902;2022-10-31T04:45:46;11.15;;;4.57;;
74231;SDS011;62590;52.430;4.902;2022-10-31T04:48:12;8.05;;;4.47;;
74231;SDS011;62590;52.430;4.902;2022-10-31T04:50:37;14.68;;;4.75;;
74231;SDS011;62590;52.430;4.902;2022-10-31T04:53:03;11.23;;;4.20;;
74231;SDS011;62590;52.430;4.902;2022-10-31T04:55:28;12.95;;;4.80;;
74231;SDS011;62590;52.430;4.902;2022-10-31T04:57:53;9.73;;;4.85;;
74231;SDS011;62590;52.430;4.902;2022-10-31T05:00:20;10.77;;;4.95;;
74231;SDS011;62590;52.430;4.902;2022-10-31T05:02:50;9.40;;;4.93;;
74231;SDS011;62590;52.430;4.902;2022-10-31T05:05:21;10.82;;;4.80;;
74231;SDS011;62590;52.430;4.902;2022-10-31T05:07:48;7.88;;;4.70;;
74231;SDS011;62590;52.430;4.902;2022-10-31T05:10:15;10.73;;;4.88;;
74231;SDS011;62590;52.430;4.902;2022-10-31T05:13:02;10.85;;;6.32;;
74231;SDS011;62590;52.430;4.902;2022-10-31T05:15:28;15.05;;;6.00;;
74231;SDS011;62590;52.430;4.902;2022-10-31T05:17:54;13.18;;;5.32;;
74231;SDS011;62590;52.430;4.902;2022-10-31T05:20:20;9.55;;;5.10;;
74231;SDS011;62590;52.430;4.902;2022-10-31T05:22:49;9.77;;;5.07;;
74231;SDS011;62590;52.430;4.902;2022-10-31T05:25:16;16.92;;;5.95;;
74231;SDS011;62590;52.430;4.902;2022-10-31T05:27:43;11.95;;;5.47;;
74231;SDS011;62590;52.430;4.902;2022-10-31T05:30:11;12.60;;;5.03;;
74231;SDS011;62590;52.430;4.902;2022-10-31T05:32:41;12.82;;;5.88;;
74231;SDS011;62590;52.430;4.902;2022-10-31T05:35:12;8.20;;;5.13;;
74231;SDS011;62590;52.430;4.902;2022-10-31T05:37:40;12.00;;;6.13;;
74231;SDS011;62590;52.430;4.902;2022-10-31T05:40:06;12.32;;;6.57;;
74231;SDS011;62590;52.430;4.902;2022-10-31T05:42:33;12.18;;;6.63;;
74231;SDS011;62590;52.430;4.902;2022-10-31T05:44:59;15.43;;;7.47;;
74231;SDS011;62590;52.430;4.902;2022-10-31T05:47:24;15.98;;;7.65;;
74231;SDS011;62590;52.430;4.902;2022-10-31T05:49:50;11.60;;;7.25;;
74231;SDS011;62590;52.430;4.902;2022-10-31T05:52:15;16.50;;;8.82;;
74231;SDS011;62590;52.430;4.902;2022-10-31T05:54:40;15.77;;;8.35;;
74231;SDS011;62590;52.430;4.902;2022-10-31T05:57:06;12.10;;;7.35;;
74231;SDS011;62590;52.430;4.902;2022-10-31T05:59:31;14.80;;;8.82;;
74231;SDS011;62590;52.430;4.902;2022-10-31T06:01:57;14.95;;;9.13;;
74231;SDS011;62590;52.430;4.902;2022-10-31T06:04:22;16.27;;;8.63;;
74231;SDS011;62590;52.430;4.902;2022-10-31T06:06:47;19.52;;;8.48;;
74231;SDS011;62590;52.430;4.902;2022-10-31T06:09:13;17.45;;;7.85;;
74231;SDS011;62590;52.430;4.902;2022-10-31T06:11:38;17.77;;;8.45;;
74231;SDS011;62590;52.430;4.902;2022-10-31T06:14:04;14.88;;;8.40;;
74231;SDS011;62590;52.430;4.902;2022-10-31T06:16:30;18.63;;;8.63;;
74231;SDS011;62590;52.430;4.902;2022-10-31T06:18:55;16.95;;;8.35;;
74231;SDS011;62590;52.430;4.902;2022-10-31T06:21:20;18.42;;;8.95;;
74231;SDS011;62590;52.430;4.902;2022-10-31T06:23:46;20.52;;;8.98;;
74231;SDS011;62590;52.430;4.902;2022-10-31T06:26:11;15.70;;;8.32;;
74231;SDS011;62590;52.430;4.902;2022-10-31T06:28:37;17.00;;;8.57;;
74231;SDS011;62590;52.430;4.902;2022-10-31T06:31:02;13.35;;;8.60;;
74231;SDS011;62590;52.430;4.902;2022-10-31T06:33:27;17.52;;;9.23;;
74231;SDS011;62590;52.430;4.902;2022-10-31T06:35:53;18.40;;;8.63;;
74231;SDS011;62590;52.430;4.902;2022-10-31T06:38:18;17.48;;;8.85;;
74231;SDS011;62590;52.430;4.902;2022-10-31T06:40:43;14.35;;;7.93;;
74231;SDS011;62590;52.430;4.902;2022-10-31T06:43:09;19.67;;;9.35;;
74231;SDS011;62590;52.430;4.902;2022-10-31T06:45:36;18.77;;;9.00;;
74231;SDS011;62590;52.430;4.902;2022-10-31T06:48:02;15.25;;;9.05;;
74231;SDS011;62590;52.430;4.902;2022-10-31T06:50:28;21.40;;;9.57;;
74231;SDS011;62590;52.430;4.902;2022-10-31T06:52:56;16.90;;;9.60;;
74231;SDS011;62590;52.430;4.902;2022-10-31T06:55:23;16.92;;;10.13;;
74231;SDS011;62590;52.430;4.902;2022-10-31T06:57:53;19.67;;;9.80;;
74231;SDS011;62590;52.430;4.902;2022-10-31T07:00:20;23.50;;;9.65;;
74231;SDS011;62590;52.430;4.902;2022-10-31T07:03:19;19.25;;;9.30;;
74231;SDS011;62590;52.430;4.902;2022-10-31T07:05:39;19.00;;;10.77;;
74231;SDS011;62590;52.430;4.902;2022-10-31T07:08:06;16.95;;;9.40;;
74231;SDS011;62590;52.430;4.902;2022-10-31T07:10:34;19.30;;;10.57;;
74231;SDS011;62590;52.430;4.902;2022-10-31T07:13:01;17.92;;;9.48;;
74231;SDS011;62590;52.430;4.902;2022-10-31T07:15:29;16.27;;;9.65;;
74231;SDS011;62590;52.430;4.902;2022-10-31T07:18:01;21.60;;;9.73;;
74231;SDS011;62590;52.430;4.902;2022-10-31T07:20:31;18.05;;;10.02;;
74231;SDS011;62590;52.430;4.902;2022-10-31T07:22:57;17.75;;;9.07;;
74231;SDS011;62590;52.430;4.902;2022-10-31T07:25:23;19.88;;;9.63;;
74231;SDS011;62590;52.430;4.902;2022-10-31T07:27:49;20.23;;;9.35;;
74231;SDS011;62590;52.430;4.902;2022-10-31T07:30:15;19.55;;;9.98;;
74231;SDS011;62590;52.430;4.902;2022-10-31T07:32:43;19.38;;;10.27;;
74231;SDS011;62590;52.430;4.902;2022-10-31T07:35:11;21.27;;;10.50;;
74231;SDS011;62590;52.430;4.902;2022-10-31T07:37:38;16.98;;;9.65;;
74231;SDS011;62590;52.430;4.902;2022-10-31T07:40:04;34.95;;;11.40;;
74231;SDS011;62590;52.430;4.902;2022-10-31T07:42:34;27.40;;;13.23;;
74231;SDS011;62590;52.430;4.902;2022-10-31T07:45:00;29.08;;;12.88;;
74231;SDS011;62590;52.430;4.902;2022-10-31T07:47:26;28.77;;;14.02;;
74231;SDS011;62590;52.430;4.902;2022-10-31T07:49:51;36.85;;;16.65;;
74231;SDS011;62590;52.430;4.902;2022-10-31T07:52:16;38.17;;;16.83;;
74231;SDS011;62590;52.430;4.902;2022-10-31T07:54:42;40.17;;;18.70;;
74231;SDS011;62590;52.430;4.902;2022-10-31T07:57:07;42.95;;;18.13;;
74231;SDS011;62590;52.430;4.902;2022-10-31T07:59:33;39.70;;;18.38;;
74231;SDS011;62590;52.430;4.902;2022-10-31T08:01:58;42.90;;;20.38;;
74231;SDS011;62590;52.430;4.902;2022-10-31T08:04:23;42.47;;;19.25;;
74231;SDS011;62590;52.430;4.902;2022-10-31T08:06:49;46.97;;;21.20;;
74231;SDS011;62590;52.430;4.902;2022-10-31T08:09:14;41.92;;;19.38;;
74231;SDS011;62590;52.430;4.902;2022-10-31T08:11:39;42.30;;;19.63;;
74231;SDS011;62590;52.430;4.902;2022-10-31T08:14:05;47.35;;;19.70;;
74231;SDS011;62590;52.430;4.902;2022-10-31T08:16:30;46.53;;;20.98;;
74231;SDS011;62590;52.430;4.902;2022-10-31T08:18:55;48.83;;;23.58;;
74231;SDS011;62590;52.430;4.902;2022-10-31T08:21:21;48.28;;;22.25;;
74231;SDS011;62590;52.430;4.902;2022-10-31T08:23:47;53.13;;;22.95;;
74231;SDS011;62590;52.430;4.902;2022-10-31T08:26:12;46.78;;;19.48;;
74231;SDS011;62590;52.430;4.902;2022-10-31T08:28:38;52.58;;;24.42;;
74231;SDS011;62590;52.430;4.902;2022-10-31T08:31:03;49.28;;;22.17;;
74231;SDS011;62590;52.430;4.902;2022-10-31T08:33:29;52.17;;;23.05;;
74231;SDS011;62590;52.430;4.902;2022-10-31T08:35:57;48.95;;;22.73;;
74231;SDS011;62590;52.430;4.902;2022-10-31T08:38:23;54.80;;;23.80;;
74231;SDS011;62590;52.430;4.902;2022-10-31T08:40:48;55.97;;;23.95;;
74231;SDS011;62590;52.430;4.902;2022-10-31T08:43:15;61.88;;;26.25;;
74231;SDS011;62590;52.430;4.902;2022-10-31T08:45:41;57.50;;;24.35;;
74231;SDS011;62590;52.430;4.902;2022-10-31T08:48:14;56.95;;;25.50;;
74231;SDS011;62590;52.430;4.902;2022-10-31T08:50:42;57.28;;;26.17;;
74231;SDS011;62590;52.430;4.902;2022-10-31T08:53:15;71.00;;;25.48;;
74231;SDS011;62590;52.430;4.902;2022-10-31T08:55:45;70.35;;;26.73;;
74231;SDS011;62590;52.430;4.902;2022-10-31T08:58:12;67.57;;;25.88;;
74231;SDS011;62590;52.430;4.902;2022-10-31T09:00:40;61.00;;;24.52;;
74231;SDS011;62590;52.430;4.902;2022-10-31T09:03:08;52.45;;;22.38;;
74231;SDS011;62590;52.430;4.902;2022-10-31T09:05:36;41.58;;;18.95;;
74231;SDS011;62590;52.430;4.902;2022-10-31T09:08:02;40.20;;;19.92;;
74231;SDS011;62590;52.430;4.902;2022-10-31T09:10:29;51.88;;;20.00;;
74231;SDS011;62590;52.430;4.902;2022-10-31T09:15:21;52.30;;;20.67;;
74231;SDS011;62590;52.430;4.902;2022-10-31T09:17:47;34.22;;;16.00;;
74231;SDS011;62590;52.430;4.902;2022-10-31T09:20:13;39.58;;;16.80;;
74231;SDS011;62590;52.430;4.902;2022-10-31T09:22:38;39.60;;;17.13;;
74231;SDS011;62590;52.430;4.902;2022-10-31T09:25:04;38.75;;;16.67;;
74231;SDS011;62590;52.430;4.902;2022-10-31T09:27:29;35.63;;;16.52;;
74231;SDS011;62590;52.430;4.902;2022-10-31T09:29:54;40.03;;;16.83;;
74231;SDS011;62590;52.430;4.902;2022-10-31T09:32:20;44.63;;;16.75;;
74231;SDS011;62590;52.430;4.902;2022-10-31T09:34:45;33.13;;;15.70;;
74231;SDS011;62590;52.430;4.902;2022-10-31T09:37:10;37.78;;;14.73;;
74231;SDS011;62590;52.430;4.902;2022-10-31T09:39:36;41.67;;;15.98;;
74231;SDS011;62590;52.430;4.902;2022-10-31T09:42:03;41.42;;;16.13;;
74231;SDS011;62590;52.430;4.902;2022-10-31T09:47:22;36.38;;;14.68;;
74231;SDS011;62590;52.430;4.902;2022-10-31T09:52:41;37.55;;;16.15;;
74231;SDS011;62590;52.430;4.902;2022-10-31T09:57:43;37.40;;;16.00;;
74231;SDS011;62590;52.430;4.902;2022-10-31T10:00:14;45.03;;;16.95;;
74231;SDS011;62590;52.430;4.902;2022-10-31T10:02:52;57.33;;;17.98;;
74231;SDS011;62590;52.430;4.902;2022-10-31T10:05:43;48.17;;;18.00;;
74231;SDS011;62590;52.430;4.902;2022-10-31T10:08:18;49.92;;;18.52;;
74231;SDS011;62590;52.430;4.902;2022-10-31T10:16:03;45.00;;;18.77;;
74231;SDS011;62590;52.430;4.902;2022-10-31T10:30:20;46.10;;;18.92;;
74231;SDS011;62590;52.430;4.902;2022-10-31T10:32:49;54.30;;;21.73;;
74231;SDS011;62590;52.430;4.902;2022-10-31T10:35:28;48.28;;;19.85;;
74231;SDS011;62590;52.430;4.902;2022-10-31T10:38:17;55.00;;;20.48;;
74231;SDS011;62590;52.430;4.902;2022-10-31T10:40:49;42.42;;;18.95;;
74231;SDS011;62590;52.430;4.902;2022-10-31T10:43:22;57.80;;;22.17;;
74231;SDS011;62590;52.430;4.902;2022-10-31T10:51:59;44.10;;;17.02;;
74231;SDS011;62590;52.430;4.902;2022-10-31T10:54:49;45.97;;;18.23;;
74231;SDS011;62590;52.430;4.902;2022-10-31T10:57:32;38.95;;;16.75;;
74231;SDS011;62590;52.430;4.902;2022-10-31T11:02:43;46.42;;;15.77;;
74231;SDS011;62590;52.430;4.902;2022-10-31T11:05:13;36.10;;;14.85;;
74231;SDS011;62590;52.430;4.902;2022-10-31T11:07:58;39.03;;;15.00;;
74231;SDS011;62590;52.430;4.902;2022-10-31T11:10:23;30.88;;;12.88;;
74231;SDS011;62590;52.430;4.902;2022-10-31T11:15:33;29.92;;;13.82;;
74231;SDS011;62590;52.430;4.902;2022-10-31T11:18:03;34.83;;;13.65;;
74231;SDS011;62590;52.430;4.902;2022-10-31T11:20:33;21.77;;;9.07;;
74231;SDS011;62590;52.430;4.902;2022-10-31T11:23:17;21.35;;;9.18;;
74231;SDS011;62590;52.430;4.902;2022-10-31T11:28:25;17.65;;;6.57;;
74231;SDS011;62590;52.430;4.902;2022-10-31T11:33:35;23.02;;;8.23;;
74231;SDS011;62590;52.430;4.902;2022-10-31T11:36:26;24.50;;;7.97;;
74231;SDS011;62590;52.430;4.902;2022-10-31T11:38:51;23.90;;;9.38;;
74231;SDS011;62590;52.430;4.902;2022-10-31T11:43:52;17.67;;;6.70;;
74231;SDS011;62590;52.430;4.902;2022-10-31T11:46:33;17.33;;;6.47;;
74231;SDS011;62590;52.430;4.902;2022-10-31T11:49:02;19.80;;;6.85;;
74231;SDS011;62590;52.430;4.902;2022-10-31T11:51:30;18.58;;;7.15;;
74231;SDS011;62590;52.430;4.902;2022-10-31T11:53:58;23.25;;;9.45;;
74231;SDS011;62590;52.430;4.902;2022-10-31T11:56:27;23.00;;;9.85;;
74231;SDS011;62590;52.430;4.902;2022-10-31T11:59:12;20.73;;;9.98;;
74231;SDS011;62590;52.430;4.902;2022-10-31T12:01:46;26.92;;;10.27;;
74231;SDS011;62590;52.430;4.902;2022-10-31T12:04:13;22.90;;;9.52;;
74231;SDS011;62590;52.430;4.902;2022-10-31T12:06:39;26.92;;;9.73;;
74231;SDS011;62590;52.430;4.902;2022-10-31T12:12:03;30.23;;;8.73;;
74231;SDS011;62590;52.430;4.902;2022-10-31T12:14:55;24.40;;;9.13;;
74231;SDS011;62590;52.430;4.902;2022-10-31T12:18:02;21.38;;;9.07;;
74231;SDS011;62590;52.430;4.902;2022-10-31T12:29:13;27.33;;;9.40;;
74231;SDS011;62590;52.430;4.902;2022-10-31T12:31:50;26.42;;;9.70;;
74231;SDS011;62590;52.430;4.902;2022-10-31T12:34:29;22.15;;;9.32;;
74231;SDS011;62590;52.430;4.902;2022-10-31T12:37:19;22.35;;;8.68;;
74231;SDS011;62590;52.430;4.902;2022-10-31T12:42:53;34.95;;;11.63;;
74231;SDS011;62590;52.430;4.902;2022-10-31T13:01:40;30.50;;;12.23;;
74231;SDS011;62590;52.430;4.902;2022-10-31T13:07:03;37.25;;;16.13;;
74231;SDS011;62590;52.430;4.902;2022-10-31T13:09:37;39.65;;;17.83;;
74231;SDS011;62590;52.430;4.902;2022-10-31T13:12:08;36.78;;;15.48;;
74231;SDS011;62590;52.430;4.902;2022-10-31T13:17:03;42.15;;;17.60;;
74231;SDS011;62590;52.430;4.902;2022-10-31T13:19:31;49.33;;;19.15;;
74231;SDS011;62590;52.430;4.902;2022-10-31T13:24:47;47.70;;;19.40;;
74231;SDS011;62590;52.430;4.902;2022-10-31T13:27:22;37.05;;;18.35;;
74231;SDS011;62590;52.430;4.902;2022-10-31T13:33:20;39.95;;;18.73;;
74231;SDS011;62590;52.430;4.902;2022-10-31T13:35:51;37.55;;;16.15;;
74231;SDS011;62590;52.430;4.902;2022-10-31T13:38:41;33.33;;;16.00;;
74231;SDS011;62590;52.430;4.902;2022-10-31T13:46:35;38.03;;;15.18;;
74231;SDS011;62590;52.430;4.902;2022-10-31T13:49:03;36.05;;;15.52;;
74231;SDS011;62590;52.430;4.902;2022-10-31T13:51:33;44.08;;;16.80;;
74231;SDS011;62590;52.430;4.902;2022-10-31T13:54:06;33.58;;;15.63;;
74231;SDS011;62590;52.430;4.902;2022-10-31T13:56:51;35.90;;;15.40;;
74231;SDS011;62590;52.430;4.902;2022-10-31T13:59:19;29.48;;;14.70;;
74231;SDS011;62590;52.430;4.902;2022-10-31T14:01:51;31.42;;;14.73;;
74231;SDS011;62590;52.430;4.902;2022-10-31T14:04:21;36.47;;;15.57;;
74231;SDS011;62590;52.430;4.902;2022-10-31T14:17:32;40.25;;;15.65;;
74231;SDS011;62590;52.430;4.902;2022-10-31T14:22:35;36.08;;;16.13;;
74231;SDS011;62590;52.430;4.902;2022-10-31T14:25:23;41.13;;;16.27;;
74231;SDS011;62590;52.430;4.902;2022-10-31T14:27:56;39.38;;;16.05;;
74231;SDS011;62590;52.430;4.902;2022-10-31T14:30:23;40.60;;;17.27;;
74231;SDS011;62590;52.430;4.902;2022-10-31T14:32:52;35.97;;;16.40;;
74231;SDS011;62590;52.430;4.902;2022-10-31T14:38:32;42.05;;;16.83;;
74231;SDS011;62590;52.430;4.902;2022-10-31T14:43:44;40.67;;;17.42;;
74231;SDS011;62590;52.430;4.902;2022-10-31T14:49:27;47.50;;;18.30;;
74231;SDS011;62590;52.430;4.902;2022-10-31T14:54:38;46.17;;;18.45;;
74231;SDS011;62590;52.430;4.902;2022-10-31T14:57:15;59.15;;;19.42;;
74231;SDS011;62590;52.430;4.902;2022-10-31T14:59:46;39.40;;;16.92;;
74231;SDS011;62590;52.430;4.902;2022-10-31T15:02:17;39.30;;;16.95;;
74231;SDS011;62590;52.430;4.902;2022-10-31T15:04:45;44.95;;;16.63;;
74231;SDS011;62590;52.430;4.902;2022-10-31T15:07:20;50.13;;;16.83;;
74231;SDS011;62590;52.430;4.902;2022-10-31T15:10:01;37.55;;;15.63;;
74231;SDS011;62590;52.430;4.902;2022-10-31T15:12:36;40.25;;;15.05;;
74231;SDS011;62590;52.430;4.902;2022-10-31T15:15:14;32.00;;;13.43;;
74231;SDS011;62590;52.430;4.902;2022-10-31T15:17:53;45.13;;;16.13;;
74231;SDS011;62590;52.430;4.902;2022-10-31T15:20:22;39.05;;;15.23;;
74231;SDS011;62590;52.430;4.902;2022-10-31T15:22:51;37.45;;;15.40;;
74231;SDS011;62590;52.430;4.902;2022-10-31T15:25:21;38.35;;;16.08;;
74231;SDS011;62590;52.430;4.902;2022-10-31T15:27:48;39.40;;;16.90;;
74231;SDS011;62590;52.430;4.902;2022-10-31T15:30:19;46.40;;;16.20;;
74231;SDS011;62590;52.430;4.902;2022-10-31T15:32:46;41.85;;;17.88;;
74231;SDS011;62590;52.430;4.902;2022-10-31T15:35:23;38.00;;;17.27;;
74231;SDS011;62590;52.430;4.902;2022-10-31T15:37:54;36.88;;;16.40;;
74231;SDS011;62590;52.430;4.902;2022-10-31T15:40:21;44.22;;;16.73;;
74231;SDS011;62590;52.430;4.902;2022-10-31T15:45:23;40.50;;;15.88;;
74231;SDS011;62590;52.430;4.902;2022-10-31T15:47:58;42.10;;;15.75;;
74231;SDS011;62590;52.430;4.902;2022-10-31T15:53:05;41.45;;;14.93;;
74231;SDS011;62590;52.430;4.902;2022-10-31T15:55:51;36.90;;;14.80;;
74231;SDS011;62590;52.430;4.902;2022-10-31T15:58:19;37.78;;;15.45;;
74231;SDS011;62590;52.430;4.902;2022-10-31T16:00:45;39.33;;;16.75;;
74231;SDS011;62590;52.430;4.902;2022-10-31T16:03:27;45.97;;;15.00;;
74231;SDS011;62590;52.430;4.902;2022-10-31T16:06:03;29.35;;;13.70;;
74231;SDS011;62590;52.430;4.902;2022-10-31T16:13:35;32.03;;;14.93;;
74231;SDS011;62590;52.430;4.902;2022-10-31T16:16:12;41.95;;;14.20;;
74231;SDS011;62590;52.430;4.902;2022-10-31T16:18:40;35.35;;;14.27;;
74231;SDS011;62590;52.430;4.902;2022-10-31T16:21:06;39.72;;;14.77;;
74231;SDS011;62590;52.430;4.902;2022-10-31T16:23:33;34.08;;;13.82;;
74231;SDS011;62590;52.430;4.902;2022-10-31T16:26:05;39.30;;;15.00;;
74231;SDS011;62590;52.430;4.902;2022-10-31T16:28:31;35.85;;;13.82;;
74231;SDS011;62590;52.430;4.902;2022-10-31T16:30:58;34.60;;;14.98;;
74231;SDS011;62590;52.430;4.902;2022-10-31T16:35:57;42.28;;;15.45;;
74231;SDS011;62590;52.430;4.902;2022-10-31T16:38:23;40.15;;;14.82;;
74231;SDS011;62590;52.430;4.902;2022-10-31T16:40:49;39.78;;;15.18;;
74231;SDS011;62590;52.430;4.902;2022-10-31T16:43:16;37.95;;;15.23;;
74231;SDS011;62590;52.430;4.902;2022-10-31T16:45:44;32.92;;;14.15;;
74231;SDS011;62590;52.430;4.902;2022-10-31T16:48:13;42.35;;;15.35;;
74231;SDS011;62590;52.430;4.902;2022-10-31T16:50:40;37.97;;;13.82;;
74231;SDS011;62590;52.430;4.902;2022-10-31T16:53:06;35.42;;;13.85;;
74231;SDS011;62590;52.430;4.902;2022-10-31T16:55:32;42.03;;;14.48;;
74231;SDS011;62590;52.430;4.902;2022-10-31T16:58:00;40.13;;;14.65;;
74231;SDS011;62590;52.430;4.902;2022-10-31T17:00:26;35.58;;;14.75;;
74231;SDS011;62590;52.430;4.902;2022-10-31T17:02:54;43.47;;;15.20;;
74231;SDS011;62590;52.430;4.902;2022-10-31T17:05:22;36.80;;;15.27;;
74231;SDS011;62590;52.430;4.902;2022-10-31T17:07:54;44.85;;;16.55;;
74231;SDS011;62590;52.430;4.902;2022-10-31T17:10:22;39.65;;;15.40;;
74231;SDS011;62590;52.430;4.902;2022-10-31T17:12:48;42.85;;;16.17;;
74231;SDS011;62590;52.430;4.902;2022-10-31T17:15:18;45.97;;;16.67;;
74231;SDS011;62590;52.430;4.902;2022-10-31T17:17:48;39.72;;;16.00;;
74231;SDS011;62590;52.430;4.902;2022-10-31T17:20:24;45.75;;;17.42;;
74231;SDS011;62590;52.430;4.902;2022-10-31T17:22:51;41.65;;;15.65;;
74231;SDS011;62590;52.430;4.902;2022-10-31T17:25:18;47.08;;;17.20;;
74231;SDS011;62590;52.430;4.902;2022-10-31T17:27:47;39.97;;;16.15;;
74231;SDS011;62590;52.430;4.902;2022-10-31T17:30:13;40.28;;;15.65;;